Flight Track Log - Related Links

Times and Time Zones

All times are in EDT time to prevent confusion due to time zone crossing. See the AAL1459 flight status page for this flight to view local times or setup timezone preferences in your user account.

Time Position Orientation Groundspeed Altitude Reporting Facility
EDT Latitude Longitude Course Direction KTS MPH feet Rate Location/Type
Sat 02:18:06 PM 42.3500 -71.0167 300° West 150 173 600  Level KA90
Sat 02:18:31 PM 42.3333 -71.0167 180° South 146 168 1,500 1,949 Climbing KA90
Sat 02:20:00 PM 42.5229 -70.7896 324° Northwest  Level FlightAware Approximate
Sat 02:20:03 PM 42.3150 -70.8986 102° East 252 290 4,400  Level Boston Center
Sat 02:21:00 PM 42.5948 -70.8658 308° West  Level FlightAware Approximate
Sat 02:21:03 PM 42.3403 -70.7772 74° East 274 315 7,400  Level Boston Center
Sat 02:22:00 PM 42.6488 -70.9705 300° West  Level FlightAware Approximate
Sat 02:22:03 PM 42.4019 -70.7278 31° Northeast 271 312 9,700  Level Boston Center
Sat 02:23:00 PM 42.6953 -71.0820 300° West  Level FlightAware Approximate
Sat 02:23:03 PM 42.5128 -70.7472 353° North 279 321 11,400  Level Boston Center
Sat 02:24:03 PM 42.5769 -70.8528 310° West 286 329 14,300 2,650 Climbing Boston Center
Sat 02:25:03 PM 42.6306 -70.9614 304° West 319 367 16,700 2,200 Climbing Boston Center
Sat 02:26:03 PM 42.6711 -71.0508 302° West 368 423 18,700 2,350 Climbing Boston Center
Sat 02:27:03 PM 42.7522 -71.2072 305° West 382 440 21,400 2,182 Climbing Boston Center
Sat 02:28:15 PM 42.7936 -71.3761 289° West 388 447 23,500 1,682 Climbing Boston Center
Sat 02:29:15 PM 42.8094 -71.5203 279° West 388 447 25,100 1,550 Climbing Boston Center
Sat 02:30:15 PM 42.8167 -71.6589 274° West 395 455 26,600 1,450 Climbing Boston Center
Sat 02:31:15 PM 42.8342 -71.8144 279° West 410 472 28,000 1,350 Climbing Boston Center
Sat 02:32:15 PM 42.8497 -71.9756 278° West 425 489 29,300 1,450 Climbing Boston Center
Sat 02:33:15 PM 42.8647 -72.1342 277° West 425 489 30,900 1,650 Climbing Boston Center
Sat 02:34:15 PM 42.8839 -72.3097 279° West 425 489 32,600 1,550 Climbing Boston Center
Sat 02:35:15 PM 42.8986 -72.4628 278° West 420 483 34,000 1,350 Climbing Boston Center
Sat 02:36:15 PM 42.9108 -72.6214 276° West 420 483 35,300 1,200 Climbing Boston Center
Sat 02:37:15 PM 42.9189 -72.7747 274° West 420 483 36,400 1,050 Climbing Boston Center
Sat 02:38:15 PM 42.9308 -72.9250 276° West 415 478 37,400 800 Climbing Boston Center
Sat 02:39:15 PM 42.9489 -73.0697 280° West 420 483 38,000 300 Climbing Boston Center
Sat 02:40:15 PM 42.9583 -73.2231 275° West 420 483 38,000  Level Boston Center
Sat 02:41:15 PM 42.9675 -73.3906 274° West 420 483 38,000 -50 Level Boston Center
Sat 02:42:15 PM 42.9786 -73.5442 276° West 415 478 37,900 -50 Descending Boston Center
Sat 02:43:15 PM 42.9917 -73.7003 277° West 415 478 37,900 50 Level Boston Center
Sat 02:44:15 PM 43.0064 -73.8569 277° West 415 478 38,000 50 Climbing Boston Center
Sat 02:45:15 PM 43.0169 -74.0133 275° West 415 478 38,000 -50 Level Boston Center
Sat 02:46:15 PM 43.0292 -74.1697 276° West 415 478 37,900 -50 Descending Boston Center
Sat 02:47:15 PM 43.0392 -74.3236 275° West 415 478 37,900  Level Boston Center
Sat 02:48:15 PM 43.0511 -74.4772 276° West 415 478 37,900 50 Level Boston Center
Sat 02:49:15 PM 43.0628 -74.6339 276° West 415 478 38,000 50 Climbing Boston Center
Sat 02:50:15 PM 43.0744 -74.7881 276° West 415 478 38,000 -50 Level Boston Center
Sat 02:51:15 PM 43.0839 -74.9361 275° West 403 464 37,900  Descending Boston Center
Sat 02:52:15 PM 43.0928 -75.0928 274° West 408 470 38,000 50 Climbing Boston Center
Sat 02:53:15 PM 43.1017 -75.2469 275° West 408 470 38,000  Level Boston Center
Sat 02:54:15 PM 43.1106 -75.3839 275° West 408 470 38,000  Level Boston Center
Sat 02:55:15 PM 43.1211 -75.5381 275° West 408 470 38,000  Level Boston Center
Sat 02:56:15 PM 43.1314 -75.6894 275° West 408 470 38,000  Level Boston Center
Sat 02:57:15 PM 43.1394 -75.8433 274° West 408 470 38,000  Level Boston Center
Sat 02:58:15 PM 43.1494 -75.9950 275° West 408 470 38,000  Level Boston Center
Sat 02:59:46 PM 43.1606 -76.2453 274° West 402 463 38,000  Level Cleveland Center
Sat 03:00:46 PM 43.1619 -76.3989 271° West 402 463 38,000  Level Cleveland Center
Sat 03:01:46 PM 43.1592 -76.5528 269° West 402 463 38,000  Level Cleveland Center
Sat 03:02:46 PM 43.1600 -76.7036 270° West 402 463 38,000  Level Cleveland Center
Sat 03:03:46 PM 43.1589 -76.8547 269° West 402 463 38,000  Level Cleveland Center
Sat 03:04:46 PM 43.1592 -77.0025 270° West 402 463 38,000  Level Cleveland Center
Sat 03:05:46 PM 43.1575 -77.1536 269° West 402 463 38,000  Level Cleveland Center
Sat 03:06:46 PM 43.1556 -77.3017 269° West 402 463 38,000  Level Cleveland Center
Sat 03:07:46 PM 43.1556 -77.4525 270° West 402 463 38,000  Level Cleveland Center
Sat 03:08:46 PM 43.1533 -77.6008 269° West 402 463 38,000  Level Cleveland Center
Sat 03:09:46 PM 43.1525 -77.7344 270° West 407 468 38,000  Level Cleveland Center
Sat 03:10:46 PM 43.1497 -77.8797 269° West 402 463 38,000  Level Cleveland Center
Sat 03:11:46 PM 43.1489 -78.0278 270° West 397 457 38,000  Level Cleveland Center
Sat 03:12:46 PM 43.1458 -78.1789 268° West 397 457 38,000  Level Cleveland Center
Sat 03:13:46 PM 43.1428 -78.3269 268° West 397 457 38,000  Level Cleveland Center
Sat 03:14:46 PM 43.1414 -78.4806 269° West 402 463 38,000  Level Cleveland Center
Sat 03:15:46 PM 43.1397 -78.6314 269° West 402 463 38,000  Level Cleveland Center
Sat 03:16:46 PM 43.1381 -78.7853 269° West 402 463 38,000  Level Cleveland Center
Sat 03:17:46 PM 43.1364 -78.9417 269° West 407 468 38,000  Level Cleveland Center
Sat 03:18:02 PM 43.1333 -78.9667 261° West 400 460 38,000  Level Toronto Center
Sat 03:19:02 PM 43.1167 -79.1333 262° West 400 460 38,000  Level Toronto Center
Sat 03:20:02 PM 43.1167 -79.2667 270° West 400 460 38,000  Level Toronto Center
Sat 03:21:02 PM 43.1167 -79.4333 270° West 390 449 38,000  Level Toronto Center
Sat 03:22:02 PM 43.1167 -79.5667 270° West 390 449 38,000  Level Toronto Center
Sat 03:23:02 PM 43.1167 -79.7167 270° West 390 449 38,000  Level Toronto Center
Sat 03:24:02 PM 43.1000 -79.8833 262° West 400 460 38,000  Level Toronto Center
Sat 03:25:02 PM 43.1000 -80.0167 270° West 400 460 38,000  Level Toronto Center
Sat 03:26:02 PM 43.1000 -80.1833 270° West 400 460 38,000  Level Toronto Center
Sat 03:27:02 PM 43.1000 -80.3333 270° West 400 460 38,000  Level Toronto Center
Sat 03:28:02 PM 43.1000 -80.5000 270° West 410 472 38,000  Level Toronto Center
Sat 03:29:02 PM 43.1000 -80.6333 270° West 410 472 38,000  Level Toronto Center
Sat 03:30:02 PM 43.0833 -80.8000 262° West 400 460 38,000  Level Toronto Center
Sat 03:31:02 PM 43.0667 -80.9500 261° West 400 460 38,000  Level Toronto Center
Sat 03:32:02 PM 43.0667 -81.1167 270° West 400 460 38,000  Level Toronto Center
Sat 03:33:02 PM 43.0667 -81.2500 270° West 400 460 38,000  Level Toronto Center
Sat 03:34:02 PM 43.0667 -81.4167 270° West 400 460 38,000  Level Toronto Center
Sat 03:35:02 PM 43.0500 -81.5500 260° West 400 460 38,000  Level Toronto Center
Sat 03:36:02 PM 43.0500 -81.7167 270° West 390 449 38,000  Level Toronto Center
Sat 03:37:02 PM 43.0500 -81.8500 270° West 390 449 38,000  Level Toronto Center
Sat 03:38:02 PM 43.0333 -82.0000 261° West 390 449 38,000  Level Toronto Center
Sat 03:39:02 PM 43.0333 -82.1500 270° West 390 449 38,000  Level Toronto Center
Sat 03:40:02 PM 43.0333 -82.3000 270° West 390 449 38,000  Level Toronto Center
Sat 03:41:02 PM 43.0167 -82.4333 260° West 390 449 38,000  Level Toronto Center
Sat 03:42:02 PM 43.0167 -82.6000 270° West 390 449 38,000  Level Toronto Center
Sat 03:42:34 PM 43.0206 -82.6761 274° West 388 447 38,000 -196 Level Cleveland Center
Sat 03:43:34 PM 43.0136 -82.8236 266° West 388 447 37,700 -650 Descending Cleveland Center
Sat 03:44:34 PM 43.0067 -82.9681 266° West 383 441 36,700 -950 Descending Cleveland Center
Sat 03:45:34 PM 43.0017 -83.1069 267° West 377 434 35,800 -900 Descending Cleveland Center
Sat 03:46:34 PM 42.9922 -83.2486 265° West 377 434 34,900 -950 Descending Cleveland Center
Sat 03:47:34 PM 42.9847 -83.3872 266° West 377 434 33,900 -950 Descending Cleveland Center
Sat 03:48:34 PM 42.9775 -83.5119 266° West 377 434 33,000 -950 Descending Cleveland Center
Sat 03:49:34 PM 42.9717 -83.6506 267° West 372 428 32,000 -500 Descending Cleveland Center
Sat 03:50:34 PM 42.9617 -83.7892 264° West 372 428 32,000  Level Cleveland Center
Sat 03:51:34 PM 42.9472 -83.9303 262° West 372 428 32,000  Level Cleveland Center
Sat 03:52:34 PM 42.9347 -84.0686 263° West 372 428 32,000  Level Cleveland Center
Sat 03:53:34 PM 42.9200 -84.2067 262° West 372 428 32,000  Level Cleveland Center
Sat 03:55:29 PM 42.8961 -84.4611 263° West 365 420 32,000  Level Chicago Center
Sat 03:56:31 PM 42.8828 -84.5958 262° West 360 414 32,000  Level Chicago Center
Sat 03:57:32 PM 42.8661 -84.7564 262° West 358 412 32,000  Level Chicago Center
Sat 03:58:34 PM 42.8522 -84.8914 262° West 359 413 32,000  Level Chicago Center
Sat 03:59:36 PM 42.8378 -85.0275 262° West 362 417 32,000  Level Chicago Center
Sat 04:00:38 PM 42.8236 -85.1628 262° West 362 417 32,000 -683 Level Chicago Center
Sat 04:01:39 PM 42.8081 -85.2989 261° West 361 415 30,600 -1,463 Descending Chicago Center
Sat 04:02:41 PM 42.7928 -85.4386 262° West 372 428 29,000 -1,548 Descending Chicago Center
Sat 04:03:43 PM 42.7731 -85.5753 259° West 368 423 27,400 -1,561 Descending Chicago Center
Sat 04:04:44 PM 42.7486 -85.7111 256° West 368 423 25,800 -1,756 Descending Chicago Center
Sat 04:05:46 PM 42.7197 -85.8697 256° West 360 414 23,800 -1,742 Descending Chicago Center
Sat 04:06:48 PM 42.6961 -85.9983 256° West 351 404 22,200 -1,561 Descending Chicago Center
Sat 04:07:49 PM 42.6725 -86.1242 256° West 344 396 20,600 -1,073 Descending Chicago Center
Sat 04:08:51 PM 42.6506 -86.2469 256° West 335 386 20,000 -290 Descending Chicago Center
Sat 04:09:53 PM 42.6272 -86.3661 255° West 327 376 20,000 -242 Level Chicago Center
Sat 04:10:55 PM 42.6053 -86.4878 256° West 330 380 19,500 -878 Descending Chicago Center
Sat 04:11:56 PM 42.5819 -86.6061 255° West 327 376 18,200 -1,561 Descending Chicago Center
Sat 04:12:58 PM 42.5614 -86.7250 257° West 326 375 16,300 -1,790 Descending Chicago Center
Sat 04:14:00 PM 42.5314 -86.8356 250° West 316 364 14,500 -2,000 Descending Chicago Center
Sat 04:15:01 PM 42.4950 -86.9656 249° West 309 356 12,200 -2,049 Descending Chicago Center
Sat 04:16:03 PM 42.4642 -87.0731 249° West 307 353 10,300 -1,306 Descending Chicago Center
Sat 04:17:05 PM 42.4350 -87.1803 250° West 305 351 9,500 -634 Descending Chicago Center
Sat 04:18:06 PM 42.3694 -87.2317 210° Southwest 279 321 9,000 -244 Descending Chicago Center
Sat 04:19:08 PM 42.3008 -87.2850 210° Southwest 273 314 9,000  Level Chicago Center
Sat 04:20:10 PM 42.2353 -87.3339 209° Southwest 271 312 9,000 -146 Level Chicago Center
Sat 04:21:11 PM 42.1708 -87.3831 209° Southwest 268 308 8,700 -878 Descending Chicago Center
Sat 04:22:13 PM 42.1081 -87.4317 210° Southwest 263 303 7,200 -1,306 Descending Chicago Center
Sat 04:23:15 PM 42.0333 -87.4833 207° Southwest 253 291 6,000 -590 Descending Chicago TRACON
Sat 04:24:15 PM 42.0000 -87.5500 236° Southwest 196 226 6,000 -600 Level Chicago TRACON
Sat 04:25:15 PM 41.9833 -87.6167 251° West 180 207 4,800 -1,041 Descending Chicago TRACON
Sat 04:26:16 PM 41.9833 -87.6667 270° West 164 189 3,900 -885 Descending Chicago TRACON

Login

Don't have an account? Register now (free) for customized features, flight alerts, and more!